Time;durP1;ratioP1;P1;durP2;ratioP2;P2;SDS_P1;SDS_P2;PMS_P1;PMS_P2;Temp;Humidity;BMP_temperature;BMP_pressure;BME280_temperature;BME280_humidity;BME280_pressure;Samples;Min_cycle;Max_cycle;Signal;HPM_P1;HPM_P2
2021/06/21 00:00:30;;;;;;;7.70;5.10;;;16.40;99.90;;;;;;4189286;28;20082;-61
2021/06/21 00:02:31;;;;;;;6.97;5.10;;;16.50;99.90;;;;;;4190849;28;20090;-63
2021/06/21 00:04:33;;;;;;;8.43;5.25;;;16.40;99.90;;;;;;4189065;28;20836;-63
2021/06/21 00:06:34;;;;;;;9.80;5.88;;;16.40;99.90;;;;;;4189801;28;20029;-60
2021/06/21 00:08:35;;;;;;;9.13;5.50;;;16.30;99.90;;;;;;4188773;28;20401;-61
2021/06/21 00:10:36;;;;;;;7.80;5.97;;;16.40;99.90;;;;;;4190029;28;20109;-63
2021/06/21 00:12:40;;;;;;;11.43;6.13;;;16.30;99.90;;;;;;4189623;28;20086;-62
2021/06/21 00:14:42;;;;;;;9.57;6.13;;;16.30;99.90;;;;;;4189788;28;20066;-63
2021/06/21 00:16:43;;;;;;;7.13;5.03;;;16.30;99.90;;;;;;4189952;28;20472;-61
2021/06/21 00:18:44;;;;;;;7.00;5.57;;;16.30;99.90;;;;;;4188818;28;20544;-61
2021/06/21 00:20:47;;;;;;;7.32;5.53;;;16.30;99.90;;;;;;4190884;28;20106;-60
2021/06/21 00:22:50;;;;;;;7.35;5.85;;;16.30;99.90;;;;;;4188736;28;20028;-61
2021/06/21 00:24:51;;;;;;;7.22;5.78;;;16.20;99.90;;;;;;4190391;28;20098;-62
2021/06/21 00:26:53;;;;;;;7.65;5.68;;;16.20;99.90;;;;;;4189025;28;20886;-61
2021/06/21 00:28:54;;;;;;;10.02;5.80;;;16.20;99.90;;;;;;4190258;28;20484;-63
2021/06/21 00:30:55;;;;;;;5.90;5.15;;;16.20;99.90;;;;;;4188791;28;20044;-60
2021/06/21 00:32:56;;;;;;;7.78;5.82;;;16.20;99.90;;;;;;4190189;28;20106;-60
2021/06/21 00:34:58;;;;;;;9.18;5.93;;;16.10;99.90;;;;;;4188909;28;20040;-61
2021/06/21 00:37:00;;;;;;;7.65;5.65;;;16.10;99.90;;;;;;4193361;28;20431;-61
2021/06/21 00:39:02;;;;;;;6.97;5.55;;;16.10;99.90;;;;;;4192140;28;20070;-62
2021/06/21 00:41:03;;;;;;;9.82;6.20;;;16.10;99.90;;;;;;4193291;28;20085;-62
2021/06/21 00:43:05;;;;;;;6.65;5.90;;;16.10;99.90;;;;;;4192674;28;21005;-61
2021/06/21 00:45:07;;;;;;;7.97;5.50;;;16.00;99.90;;;;;;4192902;28;20118;-60
2021/06/21 00:47:09;;;;;;;7.40;5.85;;;16.10;99.90;;;;;;4192695;28;20045;-62
2021/06/21 00:49:10;;;;;;;9.32;5.25;;;16.00;99.90;;;;;;4192344;28;20816;-62
2021/06/21 00:51:11;;;;;;;7.65;5.90;;;16.00;99.90;;;;;;4192664;28;20037;-63
2021/06/21 00:53:14;;;;;;;9.88;4.88;;;16.00;99.90;;;;;;4191871;28;20025;-64
2021/06/21 00:55:15;;;;;;;6.65;5.57;;;16.00;99.90;;;;;;4193582;28;20044;-63
2021/06/21 00:57:16;;;;;;;8.25;5.78;;;15.90;99.90;;;;;;4191894;28;20491;-62
2021/06/21 00:59:17;;;;;;;9.93;5.30;;;15.90;99.90;;;;;;4193269;28;21101;-63
2021/06/21 01:01:18;;;;;;;7.65;5.93;;;15.90;99.90;;;;;;4191724;28;20048;-62
2021/06/21 01:03:20;;;;;;;8.32;5.30;;;15.90;99.90;;;;;;4193216;28;20180;-64
2021/06/21 01:05:24;;;;;;;7.93;6.03;;;15.90;99.90;;;;;;4191614;28;20089;-62
2021/06/21 01:07:26;;;;;;;8.38;5.43;;;15.80;99.90;;;;;;4192853;28;20029;-61
2021/06/21 01:09:28;;;;;;;16.08;6.32;;;15.80;99.90;;;;;;4191365;28;20048;-63
2021/06/21 01:11:41;;;;;;;8.50;6.13;;;15.80;99.90;;;;;;4193165;28;20048;-62
2021/06/21 01:14:04;;;;;;;9.13;5.63;;;15.80;99.90;;;;;;4191062;28;20032;-62
2021/06/21 01:16:17;;;;;;;8.88;6.40;;;15.80;99.90;;;;;;4193288;28;20098;-63
2021/06/21 01:18:26;;;;;;;7.80;6.30;;;15.80;99.90;;;;;;4191558;28;20028;-63
2021/06/21 01:20:50;;;;;;;7.43;6.00;;;15.80;99.90;;;;;;4192771;28;20032;-63
2021/06/21 01:23:12;;;;;;;8.32;5.85;;;15.80;99.90;;;;;;4191479;28;20028;-63
2021/06/21 01:25:40;;;;;;;8.70;5.85;;;15.70;99.90;;;;;;4192531;28;20066;-61
2021/06/21 01:28:04;;;;;;;10.90;6.25;;;15.70;99.90;;;;;;4191530;28;20070;-62
2021/06/21 01:30:11;;;;;;;8.18;6.00;;;15.70;99.90;;;;;;4192250;28;20028;-62
2021/06/21 01:32:18;;;;;;;9.77;6.30;;;15.70;99.90;;;;;;4191737;28;20034;-63
2021/06/21 01:34:23;;;;;;;13.02;7.20;;;15.60;99.90;;;;;;4192062;28;20040;-62
2021/06/21 01:36:25;;;;;;;11.57;6.13;;;15.60;99.90;;;;;;4191106;28;20087;-62
2021/06/21 01:38:37;;;;;;;9.88;6.55;;;15.60;99.90;;;;;;4192325;28;20138;-62
2021/06/21 01:40:45;;;;;;;10.68;6.30;;;15.50;99.90;;;;;;4190715;28;20071;-62
2021/06/21 01:42:51;;;;;;;10.80;5.90;;;15.50;99.90;;;;;;4191894;28;20499;-62
2021/06/21 01:45:01;;;;;;;8.35;6.38;;;15.60;99.90;;;;;;4191347;28;20403;-61
2021/06/21 01:47:04;;;;;;;11.32;6.97;;;15.50;99.90;;;;;;4192002;28;20033;-62
2021/06/21 01:49:10;;;;;;;10.85;6.38;;;15.50;99.90;;;;;;4190845;28;20590;-63
2021/06/21 01:51:13;;;;;;;8.80;6.70;;;15.50;99.90;;;;;;4190525;28;20037;-59
2021/06/21 01:53:18;;;;;;;9.98;5.68;;;15.40;99.90;;;;;;4190799;28;20435;-61
2021/06/21 01:55:22;;;;;;;9.80;6.75;;;15.40;99.90;;;;;;4191719;28;20093;-61
2021/06/21 01:57:32;;;;;;;10.68;6.65;;;15.40;99.90;;;;;;4190881;28;20032;-61
2021/06/21 01:59:33;;;;;;;15.05;7.13;;;15.40;99.90;;;;;;4192456;28;20036;-63
2021/06/21 02:01:37;;;;;;;11.45;7.03;;;15.30;99.90;;;;;;4191064;28;20488;-62
2021/06/21 02:03:38;;;;;;;8.98;6.10;;;15.30;99.90;;;;;;4192552;28;20090;-61
2021/06/21 02:05:41;;;;;;;9.32;6.55;;;15.30;99.90;;;;;;4190600;28;20098;-62
2021/06/21 02:07:45;;;;;;;10.00;6.75;;;15.40;99.90;;;;;;4192331;28;20044;-62
2021/06/21 02:09:48;;;;;;;9.73;6.78;;;15.30;99.90;;;;;;4190838;28;20049;-61
2021/06/21 02:11:52;;;;;;;12.15;6.95;;;15.30;99.90;;;;;;4191425;28;20048;-60
2021/06/21 02:13:55;;;;;;;11.57;6.80;;;15.30;99.90;;;;;;4190827;28;20780;-61
2021/06/21 02:15:57;;;;;;;13.13;6.53;;;15.30;99.90;;;;;;4191667;28;20036;-61
2021/06/21 02:18:00;;;;;;;9.95;7.10;;;15.30;99.90;;;;;;4191637;28;20033;-60
2021/06/21 02:20:05;;;;;;;8.93;6.22;;;15.30;99.90;;;;;;4191102;28;20033;-60
2021/06/21 02:22:06;;;;;;;9.90;6.10;;;15.30;99.90;;;;;;4191227;28;20021;-60
2021/06/21 02:24:07;;;;;;;11.13;6.78;;;15.30;99.90;;;;;;4190293;28;20443;-60
2021/06/21 02:26:10;;;;;;;9.57;6.05;;;15.40;99.90;;;;;;4191855;28;20102;-62
2021/06/21 02:28:13;;;;;;;9.07;6.15;;;15.30;99.90;;;;;;4190166;28;20037;-62
2021/06/21 02:30:16;;;;;;;11.45;6.65;;;15.30;99.90;;;;;;4191757;28;20049;-60
2021/06/21 02:32:18;;;;;;;9.60;5.97;;;15.30;99.90;;;;;;4190764;28;20041;-60
2021/06/21 02:34:20;;;;;;;12.90;6.50;;;15.30;99.90;;;;;;4191776;28;20077;-60
2021/06/21 02:36:21;;;;;;;9.93;7.00;;;15.30;99.90;;;;;;4190296;28;20040;-60
2021/06/21 02:38:22;;;;;;;8.45;6.35;;;15.30;99.90;;;;;;4191333;28;20028;-61
2021/06/21 02:40:25;;;;;;;10.50;5.47;;;15.30;99.90;;;;;;4190570;28;20036;-59
2021/06/21 02:42:27;;;;;;;11.68;7.15;;;15.40;99.90;;;;;;4191655;28;20028;-60
2021/06/21 02:44:29;;;;;;;12.30;7.63;;;15.40;99.90;;;;;;4190544;28;20041;-62
2021/06/21 02:46:31;;;;;;;11.40;6.72;;;15.40;99.90;;;;;;4191393;28;20133;-60
2021/06/21 02:48:32;;;;;;;9.85;7.15;;;15.40;99.90;;;;;;4190296;28;20036;-58
2021/06/21 02:50:34;;;;;;;11.50;6.97;;;15.50;99.90;;;;;;4190761;28;20081;-61
2021/06/21 02:53:13;;;;;;;9.10;5.68;;;15.60;99.90;;;;;;4190373;28;20082;-62
2021/06/21 02:55:25;;;;;;;9.98;6.95;;;15.70;99.90;;;;;;4172377;28;20057;-60
2021/06/21 02:57:32;;;;;;;10.82;7.07;;;15.90;99.90;;;;;;4173539;28;20028;-61
2021/06/21 02:59:36;;;;;;;11.75;6.93;;;16.00;99.90;;;;;;4173755;28;20028;-60
2021/06/21 03:01:43;;;;;;;10.77;6.93;;;16.20;99.90;;;;;;4186384;28;20063;-60
2021/06/21 03:03:50;;;;;;;8.68;6.82;;;16.40;99.90;;;;;;4190940;28;20078;-59
2021/06/21 03:05:52;;;;;;;9.52;6.45;;;16.60;99.90;;;;;;4189838;28;20102;-59
2021/06/21 03:07:55;;;;;;;10.95;7.28;;;16.60;99.90;;;;;;4190301;28;20463;-61
2021/06/21 03:09:59;;;;;;;10.63;6.53;;;16.70;99.90;;;;;;4190280;28;20569;-62
2021/06/21 03:12:01;;;;;;;8.18;6.47;;;16.80;99.90;;;;;;4190655;28;20111;-62
2021/06/21 03:14:03;;;;;;;9.48;6.93;;;17.00;99.90;;;;;;4197065;28;20757;-60
2021/06/21 03:16:06;;;;;;;10.65;6.28;;;17.10;99.90;;;;;;4207310;28;20032;-60
2021/06/21 03:18:08;;;;;;;9.80;6.68;;;17.30;99.90;;;;;;4207033;28;20472;-59
2021/06/21 03:20:10;;;;;;;10.90;6.38;;;17.70;99.90;;;;;;4206767;28;20062;-61
2021/06/21 03:22:12;;;;;;;10.20;5.93;;;17.80;99.90;;;;;;4207795;28;20048;-61
2021/06/21 03:24:14;;;;;;;9.27;6.35;;;18.10;99.90;;;;;;4192726;28;20092;-62
2021/06/21 03:26:16;;;;;;;14.30;6.28;;;18.20;99.90;;;;;;4190592;28;20439;-61
2021/06/21 03:28:17;;;;;;;7.97;5.80;;;18.30;99.90;;;;;;4189502;28;20816;-61
2021/06/21 03:30:18;;;;;;;6.78;5.13;;;18.30;99.90;;;;;;4191002;28;20082;-61
2021/06/21 03:32:25;;;;;;;8.00;5.85;;;18.30;99.90;;;;;;4189159;28;20482;-61
2021/06/21 03:34:26;;;;;;;10.05;6.00;;;18.40;99.90;;;;;;4190746;28;20160;-61
2021/06/21 03:36:28;;;;;;;7.95;5.43;;;18.70;99.90;;;;;;4189540;28;20025;-61
2021/06/21 03:38:30;;;;;;;7.00;5.43;;;18.80;99.90;;;;;;4190303;28;20307;-62
2021/06/21 03:40:31;;;;;;;6.00;5.00;;;19.10;99.90;;;;;;4189725;28;20028;-61
2021/06/21 03:42:32;;;;;;;8.75;5.47;;;19.00;99.90;;;;;;4190215;28;20070;-61
2021/06/21 03:44:34;;;;;;;8.05;5.47;;;19.00;99.90;;;;;;4189239;28;20082;-61
2021/06/21 03:46:35;;;;;;;6.28;5.47;;;19.10;99.90;;;;;;4189589;28;20405;-61
2021/06/21 03:48:37;;;;;;;9.85;5.40;;;19.30;99.90;;;;;;4189976;28;20120;-61
2021/06/21 03:50:38;;;;;;;10.48;5.20;;;19.50;99.90;;;;;;4189231;28;20486;-61
2021/06/21 03:52:39;;;;;;;8.00;5.20;;;19.50;99.90;;;;;;4190608;28;20045;-60
2021/06/21 03:54:40;;;;;;;6.45;5.13;;;19.60;99.90;;;;;;4187600;28;20105;-61
2021/06/21 03:56:42;;;;;;;8.07;4.68;;;19.90;99.90;;;;;;4190454;28;20082;-63
2021/06/21 03:58:45;;;;;;;7.72;5.43;;;20.10;99.90;;;;;;4189059;28;20037;-60
2021/06/21 04:00:46;;;;;;;6.50;4.85;;;20.20;99.90;;;;;;4189643;28;20032;-60
2021/06/21 04:02:48;;;;;;;9.23;4.60;;;20.50;99.90;;;;;;4189007;28;20098;-61
2021/06/21 04:04:49;;;;;;;6.72;5.43;;;20.60;99.90;;;;;;4190303;28;20044;-61
2021/06/21 04:06:50;;;;;;;5.38;4.53;;;20.70;99.90;;;;;;4189032;28;20531;-60
2021/06/21 04:08:51;;;;;;;6.40;4.75;;;21.00;99.90;;;;;;4189930;28;21378;-63
2021/06/21 04:10:53;;;;;;;6.45;4.47;;;21.30;99.90;;;;;;4188656;28;20093;-61
2021/06/21 04:12:54;;;;;;;5.97;4.63;;;21.30;99.90;;;;;;4172631;28;20492;-62
2021/06/21 04:14:55;;;;;;;7.43;4.55;;;21.30;99.90;;;;;;4172268;28;20378;-61
2021/06/21 04:16:56;;;;;;;5.35;4.85;;;21.40;99.90;;;;;;4173245;28;20033;-61
2021/06/21 04:18:57;;;;;;;6.20;4.80;;;21.70;99.90;;;;;;4172633;28;20041;-61
2021/06/21 04:20:59;;;;;;;6.38;4.72;;;21.70;99.90;;;;;;4172437;28;20090;-62
2021/06/21 04:23:00;;;;;;;8.93;5.25;;;21.70;99.90;;;;;;4172755;28;20560;-62
2021/06/21 04:25:02;;;;;;;6.35;5.10;;;21.80;99.90;;;;;;4171857;28;20029;-62
2021/06/21 04:27:03;;;;;;;5.97;5.07;;;21.90;99.90;;;;;;4173325;28;20041;-61
2021/06/21 04:29:04;;;;;;;7.55;5.60;;;22.10;99.90;;;;;;4172307;28;20075;-60
2021/06/21 04:31:06;;;;;;;5.10;4.53;;;22.10;99.90;;;;;;4189884;28;20029;-61
2021/06/21 04:33:07;;;;;;;5.13;4.50;;;22.10;99.90;;;;;;4188894;28;20059;-62
2021/06/21 04:35:14;;;;;;;7.70;5.25;;;22.00;99.90;;;;;;4190363;28;20086;-62
2021/06/21 04:37:15;;;;;;;7.53;4.53;;;22.00;99.90;;;;;;4187463;28;20205;-63
2021/06/21 04:39:16;;;;;;;9.35;4.53;;;22.10;99.90;;;;;;4189631;28;20055;-61
2021/06/21 04:41:17;;;;;;;6.18;4.50;;;22.10;99.90;;;;;;4189252;28;20073;-62
2021/06/21 04:43:19;;;;;;;6.47;4.55;;;22.00;99.90;;;;;;4190198;28;20036;-61
2021/06/21 04:45:21;;;;;;;5.63;5.05;;;21.90;99.90;;;;;;4189030;28;20078;-63
2021/06/21 04:47:24;;;;;;;7.95;4.50;;;21.90;99.90;;;;;;4189056;28;20673;-62
2021/06/21 04:49:25;;;;;;;7.10;5.13;;;21.90;99.90;;;;;;4189516;28;20419;-62
2021/06/21 04:51:27;;;;;;;5.60;5.05;;;21.80;99.90;;;;;;4189461;28;20032;-61
2021/06/21 04:53:29;;;;;;;6.78;5.07;;;21.80;99.90;;;;;;4188779;28;20046;-62
2021/06/21 04:55:30;;;;;;;7.38;5.18;;;22.10;99.90;;;;;;4189148;28;20052;-62
2021/06/21 04:57:33;;;;;;;5.55;5.05;;;22.10;99.90;;;;;;4189683;28;20081;-61
2021/06/21 04:59:34;;;;;;;7.18;5.43;;;21.90;99.90;;;;;;4188255;28;20473;-62
2021/06/21 05:01:35;;;;;;;7.80;5.55;;;21.90;99.90;;;;;;4189975;28;20546;-60
2021/06/21 05:03:37;;;;;;;8.48;5.63;;;21.90;99.90;;;;;;4188710;28;20098;-61
2021/06/21 05:05:38;;;;;;;5.72;5.13;;;21.90;99.90;;;;;;4189459;28;20530;-62
2021/06/21 05:07:40;;;;;;;6.10;4.65;;;21.70;99.90;;;;;;4188311;28;20033;-62
2021/06/21 05:09:44;;;;;;;8.00;6.18;;;21.50;99.90;;;;;;4189520;28;20048;-62
2021/06/21 05:11:45;;;;;;;8.98;5.88;;;21.30;99.90;;;;;;4188413;28;20097;-63
2021/06/21 05:13:47;;;;;;;8.65;5.68;;;21.10;99.90;;;;;;4189778;28;20094;-61
2021/06/21 05:15:48;;;;;;;7.90;5.07;;;20.90;99.90;;;;;;4188773;28;20036;-60
2021/06/21 05:17:49;;;;;;;9.27;4.88;;;21.00;99.90;;;;;;4189668;28;20079;-63
2021/06/21 05:19:50;;;;;;;8.88;5.30;;;21.10;99.90;;;;;;4189042;28;20434;-61
2021/06/21 05:21:51;;;;;;;10.02;4.78;;;21.10;99.90;;;;;;4189081;28;20028;-61
2021/06/21 05:23:52;;;;;;;13.68;5.25;;;21.20;99.90;;;;;;4190900;28;20028;-63
2021/06/21 05:25:53;;;;;;;9.20;5.35;;;21.20;99.90;;;;;;4191407;28;20056;-61
2021/06/21 05:27:54;;;;;;;7.30;5.68;;;21.10;99.90;;;;;;4192507;28;20028;-61
2021/06/21 05:29:57;;;;;;;6.57;5.28;;;21.10;99.90;;;;;;4189728;28;20452;-61
2021/06/21 05:32:00;;;;;;;6.57;5.63;;;21.00;99.90;;;;;;4192263;28;20439;-62
2021/06/21 05:34:02;;;;;;;6.18;5.25;;;21.00;99.90;;;;;;4191152;28;20733;-61
2021/06/21 05:36:03;;;;;;;6.13;4.90;;;21.10;99.90;;;;;;4192577;28;20021;-62
2021/06/21 05:38:04;;;;;;;8.32;5.93;;;21.00;99.90;;;;;;4190925;28;20020;-61
2021/06/21 05:40:06;;;;;;;7.72;5.35;;;21.00;99.90;;;;;;4192194;28;20028;-63
2021/06/21 05:42:08;;;;;;;6.43;5.75;;;20.90;99.90;;;;;;4191176;28;20435;-61
2021/06/21 05:44:09;;;;;;;8.18;5.75;;;20.90;99.90;;;;;;4192501;28;20032;-61
2021/06/21 05:46:10;;;;;;;7.93;5.78;;;21.00;99.90;;;;;;4191441;28;20102;-62
2021/06/21 05:48:11;;;;;;;7.15;5.05;;;21.10;99.90;;;;;;4191373;28;20911;-61
2021/06/21 05:50:13;;;;;;;8.00;5.53;;;21.00;99.90;;;;;;4190660;28;20025;-62
2021/06/21 05:52:14;;;;;;;5.63;5.03;;;21.20;99.90;;;;;;4190927;28;20021;-61
2021/06/21 05:54:15;;;;;;;7.13;5.30;;;21.20;99.90;;;;;;4190807;28;20462;-61
2021/06/21 05:56:16;;;;;;;5.53;4.45;;;21.10;99.90;;;;;;4191327;28;20040;-62
2021/06/21 05:58:17;;;;;;;6.80;5.28;;;21.30;99.90;;;;;;4192309;28;20431;-61
2021/06/21 06:00:19;;;;;;;6.72;4.97;;;21.50;99.90;;;;;;4191042;28;20044;-60
2021/06/21 06:02:21;;;;;;;6.85;4.38;;;21.50;99.90;;;;;;4191693;28;20024;-64
2021/06/21 06:04:22;;;;;;;6.68;4.78;;;21.80;99.90;;;;;;4191180;28;20041;-62
2021/06/21 06:06:23;;;;;;;6.43;5.00;;;21.70;99.90;;;;;;4191828;28;20044;-62
2021/06/21 06:08:24;;;;;;;6.32;5.00;;;21.80;99.90;;;;;;4190523;28;20045;-61
2021/06/21 06:10:25;;;;;;;5.00;3.92;;;21.90;99.90;;;;;;4191739;28;20066;-60
2021/06/21 06:12:27;;;;;;;4.43;4.03;;;22.00;99.90;;;;;;4190311;28;20090;-61
2021/06/21 06:14:28;;;;;;;6.28;3.83;;;22.00;99.90;;;;;;4191376;28;20040;-61
2021/06/21 06:16:29;;;;;;;5.57;4.45;;;22.00;99.90;;;;;;4190212;28;20044;-60
2021/06/21 06:18:30;;;;;;;6.75;3.95;;;22.10;99.90;;;;;;4191448;28;20040;-61
2021/06/21 06:20:31;;;;;;;4.97;4.35;;;22.20;99.90;;;;;;4189978;28;20863;-61
2021/06/21 06:22:33;;;;;;;7.53;4.60;;;22.10;99.90;;;;;;4190499;28;20032;-60
2021/06/21 06:24:34;;;;;;;5.75;4.32;;;22.20;99.90;;;;;;4190612;28;20032;-61
2021/06/21 06:26:36;;;;;;;6.30;4.57;;;22.30;99.90;;;;;;4190604;28;20036;-61
2021/06/21 06:28:40;;;;;;;6.30;3.85;;;22.20;99.90;;;;;;4190373;28;20499;-60
2021/06/21 06:30:41;;;;;;;4.43;4.03;;;22.20;99.90;;;;;;4190388;28;20097;-60
2021/06/21 06:32:43;;;;;;;4.05;3.65;;;22.10;99.90;;;;;;4190938;28;20044;-61
2021/06/21 06:34:44;;;;;;;4.03;3.63;;;22.20;99.90;;;;;;4190141;28;20447;-61
2021/06/21 06:36:45;;;;;;;4.30;3.17;;;22.20;99.90;;;;;;4204011;28;20085;-60
2021/06/21 06:38:46;;;;;;;4.07;3.50;;;22.20;99.90;;;;;;4200123;28;20790;-60
2021/06/21 06:40:47;;;;;;;4.30;3.40;;;22.40;99.90;;;;;;4193518;28;21104;-61
2021/06/21 06:42:51;;;;;;;3.55;3.20;;;22.40;99.90;;;;;;4189131;28;20042;-60
2021/06/21 06:44:52;;;;;;;3.72;3.30;;;22.50;99.90;;;;;;4191247;28;20109;-60
2021/06/21 06:46:53;;;;;;;3.25;2.95;;;22.50;99.90;;;;;;4190047;28;20040;-60
2021/06/21 06:48:54;;;;;;;3.70;3.40;;;22.60;99.90;;;;;;4190953;28;20188;-61
2021/06/21 06:50:55;;;;;;;4.13;3.35;;;22.60;99.90;;;;;;4189228;28;20094;-60
2021/06/21 06:52:58;;;;;;;4.75;3.22;;;22.50;99.90;;;;;;4190654;28;20090;-61
2021/06/21 06:57:07;;;;;;;3.38;3.05;;;22.50;99.90;;;;;;4190103;28;20059;-60
2021/06/21 06:59:08;;;;;;;5.13;3.28;;;22.40;99.90;;;;;;4189603;28;20036;-61
2021/06/21 07:01:09;;;;;;;4.50;2.80;;;22.60;99.90;;;;;;4190600;28;20369;-61
2021/06/21 07:03:11;;;;;;;4.18;2.78;;;22.70;99.90;;;;;;4190832;28;20533;-62
2021/06/21 07:05:13;;;;;;;3.15;2.50;;;22.80;99.90;;;;;;4189609;28;20115;-62
2021/06/21 07:07:14;;;;;;;6.78;2.60;;;22.80;99.90;;;;;;4191110;28;20048;-61
2021/06/21 07:09:15;;;;;;;4.10;2.90;;;22.90;99.90;;;;;;4188880;28;20490;-61
2021/06/21 07:11:17;;;;;;;2.58;2.08;;;22.90;99.90;;;;;;4190399;28;20094;-62
2021/06/21 07:13:18;;;;;;;2.30;2.10;;;22.90;99.90;;;;;;4189294;28;20514;-62
2021/06/21 07:15:19;;;;;;;2.45;1.95;;;22.90;99.90;;;;;;4191154;28;20032;-62
2021/06/21 07:17:20;;;;;;;2.65;1.80;;;23.10;99.90;;;;;;4189719;28;20119;-56
2021/06/21 07:19:22;;;;;;;2.58;1.65;;;23.00;99.90;;;;;;4190818;28;20033;-61
2021/06/21 07:21:23;;;;;;;4.00;1.80;;;23.10;99.90;;;;;;4187842;28;20058;-61
2021/06/21 07:23:24;;;;;;;2.85;1.58;;;23.20;99.90;;;;;;4190345;28;20024;-61
2021/06/21 07:25:25;;;;;;;3.13;1.83;;;23.40;99.90;;;;;;4188898;28;20445;-61
2021/06/21 07:27:26;;;;;;;3.30;1.65;;;23.50;99.90;;;;;;4188689;28;20048;-62
2021/06/21 07:29:28;;;;;;;1.88;1.77;;;23.50;99.90;;;;;;4189392;28;20148;-61
2021/06/21 07:31:29;;;;;;;2.33;2.17;;;23.50;99.90;;;;;;4188938;28;20032;-63
2021/06/21 07:33:34;;;;;;;2.33;2.05;;;23.40;99.90;;;;;;4189478;28;20086;-68
2021/06/21 07:35:36;;;;;;;3.15;1.77;;;23.40;99.90;;;;;;4189352;28;20041;-61
2021/06/21 07:37:37;;;;;;;2.28;1.85;;;23.40;99.90;;;;;;4190276;28;20044;-60
2021/06/21 07:39:38;;;;;;;2.80;2.13;;;23.50;99.90;;;;;;4187657;28;20063;-62
2021/06/21 07:41:39;;;;;;;2.03;1.90;;;23.50;99.90;;;;;;4190891;28;20071;-61
2021/06/21 07:43:41;;;;;;;2.97;2.30;;;23.40;99.90;;;;;;4189622;28;20036;-63
2021/06/21 07:45:43;;;;;;;2.55;1.95;;;23.50;99.90;;;;;;4190368;28;20033;-63
2021/06/21 07:47:44;;;;;;;3.47;2.00;;;23.40;99.90;;;;;;4188829;28;20070;-62
2021/06/21 07:49:45;;;;;;;2.00;1.80;;;23.40;99.90;;;;;;4190179;28;20040;-63
2021/06/21 07:51:46;;;;;;;3.83;2.08;;;23.50;99.90;;;;;;4189073;28;20040;-63
2021/06/21 07:53:51;;;;;;;2.55;2.10;;;23.50;99.90;;;;;;4190098;28;20384;-63
2021/06/21 07:55:52;;;;;;;2.60;1.90;;;23.50;99.90;;;;;;4188353;28;20464;-61
2021/06/21 07:57:56;;;;;;;5.13;1.77;;;23.50;99.90;;;;;;4189520;28;20033;-60
2021/06/21 07:59:57;;;;;;;2.00;1.80;;;23.60;99.90;;;;;;4189124;28;20113;-61
2021/06/21 08:01:58;;;;;;;2.15;1.77;;;23.80;99.90;;;;;;4189577;28;20484;-62
2021/06/21 08:04:00;;;;;;;3.60;1.98;;;23.80;99.90;;;;;;4188600;28;20032;-60
2021/06/21 08:06:03;;;;;;;1.85;1.75;;;23.70;99.90;;;;;;4189102;28;20447;-60
2021/06/21 08:08:06;;;;;;;1.50;1.40;;;23.80;99.90;;;;;;4189815;28;20082;-60
2021/06/21 08:10:09;;;;;;;3.60;1.63;;;23.80;99.90;;;;;;4189172;28;20417;-60
2021/06/21 08:12:10;;;;;;;2.95;1.40;;;23.80;99.90;;;;;;4189520;28;20032;-60
2021/06/21 08:14:11;;;;;;;4.97;1.65;;;23.90;99.90;;;;;;4188768;28;20029;-59
2021/06/21 08:16:12;;;;;;;1.77;1.67;;;24.10;99.90;;;;;;4190829;28;20036;-60
2021/06/21 08:18:14;;;;;;;2.78;1.92;;;24.10;99.90;;;;;;4188194;28;20421;-60
2021/06/21 08:20:16;;;;;;;1.55;1.45;;;24.00;99.90;;;;;;4190108;28;20036;-62
2021/06/21 08:22:21;;;;;;;2.15;1.50;;;24.10;99.90;;;;;;4188452;28;20578;-62
2021/06/21 08:24:22;;;;;;;2.10;1.50;;;24.30;99.90;;;;;;4189800;28;20423;-63
2021/06/21 08:26:24;;;;;;;1.42;1.33;;;24.50;99.90;;;;;;4188579;28;20090;-64
2021/06/21 08:28:25;;;;;;;2.05;1.75;;;24.40;99.90;;;;;;4190204;28;20040;-60
2021/06/21 08:30:26;;;;;;;3.65;1.30;;;24.40;99.90;;;;;;4188409;28;20451;-61
2021/06/21 08:32:28;;;;;;;4.15;1.20;;;24.50;99.90;;;;;;4189481;28;20443;-60
2021/06/21 08:34:29;;;;;;;2.72;1.17;;;24.50;99.90;;;;;;4189240;28;20870;-60
2021/06/21 08:36:30;;;;;;;2.70;1.40;;;24.50;99.90;;;;;;4189352;28;20095;-60
2021/06/21 08:38:31;;;;;;;1.85;1.70;;;24.50;99.90;;;;;;4189071;28;20078;-61
2021/06/21 08:40:35;;;;;;;1.35;1.25;;;24.60;99.90;;;;;;4188723;28;20021;-60
2021/06/21 08:42:37;;;;;;;1.50;1.40;;;24.60;99.90;;;;;;4188847;28;20041;-58
2021/06/21 08:44:41;;;;;;;3.08;1.30;;;24.50;99.90;;;;;;4188441;28;20033;-59
2021/06/21 08:46:43;;;;;;;5.47;1.30;;;24.50;99.90;;;;;;4189526;28;20401;-59
2021/06/21 08:48:47;;;;;;;2.33;1.33;;;24.40;99.90;;;;;;4187552;28;20090;-59
2021/06/21 08:50:48;;;;;;;3.92;1.85;;;24.50;99.90;;;;;;4189177;28;20480;-59
2021/06/21 08:52:50;;;;;;;2.67;1.10;;;24.70;99.90;;;;;;4187261;28;20488;-58
2021/06/21 08:54:53;;;;;;;1.20;1.10;;;24.80;99.90;;;;;;4178951;28;20185;-59
2021/06/21 08:56:58;;;;;;;1.30;1.13;;;24.90;99.90;;;;;;4182533;28;20032;-59
2021/06/21 08:59:07;;;;;;;2.00;1.05;;;24.80;99.90;;;;;;4191738;28;20052;-58
2021/06/21 09:01:09;;;;;;;1.15;1.10;;;24.90;99.90;;;;;;4191513;28;20028;-59
2021/06/21 09:03:10;;;;;;;2.72;1.67;;;24.90;99.90;;;;;;4192579;28;20044;-59
2021/06/21 09:05:12;;;;;;;2.38;1.35;;;24.80;99.90;;;;;;4191944;28;20484;-58
2021/06/21 09:07:20;;;;;;;4.53;1.60;;;24.80;99.90;;;;;;4192824;28;20049;-58
2021/06/21 09:09:33;;;;;;;3.78;1.58;;;24.80;99.90;;;;;;4190836;28;20102;-59
2021/06/21 09:11:47;;;;;;;1.42;1.33;;;24.80;99.90;;;;;;4192740;28;20098;-59
2021/06/21 09:13:50;;;;;;;3.78;1.50;;;24.80;99.90;;;;;;4191702;28;20059;-57
2021/06/21 09:15:55;;;;;;;1.33;1.17;;;24.80;99.90;;;;;;4192563;28;20166;-58
2021/06/21 09:17:57;;;;;;;5.00;1.13;;;24.80;99.90;;;;;;4192298;28;20036;-59
2021/06/21 09:20:10;;;;;;;3.65;1.65;;;24.90;99.90;;;;;;4192940;28;20032;-59
2021/06/21 09:22:37;;;;;;;0.85;0.85;;;24.90;99.90;;;;;;4191128;28;20488;-59
2021/06/21 09:24:38;;;;;;;1.38;1.30;;;24.90;99.90;;;;;;4178800;28;20094;-57
2021/06/21 09:26:40;;;;;;;1.35;0.90;;;24.90;99.90;;;;;;4186841;28;20040;-59
2021/06/21 09:28:41;;;;;;;1.77;1.08;;;25.00;99.90;;;;;;4192475;28;20016;-58
2021/06/21 09:30:50;;;;;;;1.65;0.95;;;25.00;99.90;;;;;;4191439;28;20102;-58
2021/06/21 09:32:54;;;;;;;1.50;1.40;;;25.10;99.90;;;;;;4192184;28;20923;-59
2021/06/21 09:34:55;;;;;;;1.30;1.20;;;25.20;99.90;;;;;;4191100;28;20431;-61
2021/06/21 09:37:09;;;;;;;1.80;0.90;;;25.10;99.90;;;;;;4191315;28;20068;-60
2021/06/21 09:39:19;;;;;;;2.50;0.73;;;24.90;99.90;;;;;;4191115;28;20122;-58
2021/06/21 09:41:21;;;;;;;1.50;1.10;;;25.00;99.90;;;;;;4191426;28;20062;-59
2021/06/21 09:43:29;;;;;;;2.17;0.88;;;25.00;99.90;;;;;;4191653;28;20789;-58
2021/06/21 09:45:30;;;;;;;1.63;1.02;;;25.00;99.90;;;;;;4190777;28;20044;-58
2021/06/21 09:47:37;;;;;;;0.88;0.88;;;25.10;99.90;;;;;;4191337;28;20044;-59
2021/06/21 09:49:38;;;;;;;1.60;1.10;;;25.30;99.90;;;;;;4190617;28;20112;-59
2021/06/21 09:51:39;;;;;;;0.90;0.80;;;25.20;99.90;;;;;;4191268;28;20671;-57
2021/06/21 09:53:40;;;;;;;1.58;1.02;;;25.10;99.90;;;;;;4191177;28;20032;-57
2021/06/21 09:55:44;;;;;;;1.20;0.90;;;25.10;99.90;;;;;;4192605;28;20032;-60
2021/06/21 09:57:47;;;;;;;1.75;0.98;;;25.20;99.90;;;;;;4197883;28;20136;-59
2021/06/21 09:59:48;;;;;;;2.65;0.90;;;25.20;99.90;;;;;;4208697;28;20032;-58
2021/06/21 10:02:03;;;;;;;1.20;1.00;;;25.10;99.80;;;;;;4191288;28;20048;-60
2021/06/21 10:04:21;;;;;;;1.48;1.00;;;25.10;99.70;;;;;;4189295;28;20028;-59
2021/06/21 10:06:22;;;;;;;2.67;0.93;;;25.10;99.80;;;;;;4190665;28;20025;-60
2021/06/21 10:08:48;;;;;;;2.10;0.82;;;25.10;99.90;;;;;;4190689;28;20049;-60
2021/06/21 10:11:05;;;;;;;2.85;0.90;;;25.20;99.90;;;;;;4189642;28;20024;-60
2021/06/21 10:13:08;;;;;;;1.55;0.60;;;25.30;99.50;;;;;;4190400;28;20040;-59
2021/06/21 10:15:11;;;;;;;1.00;0.90;;;25.60;99.20;;;;;;4189468;28;20078;-56
2021/06/21 10:17:12;;;;;;;3.75;0.93;;;25.80;99.30;;;;;;4190953;28;20467;-59
2021/06/21 10:19:14;;;;;;;2.58;1.10;;;25.70;99.30;;;;;;4190138;28;20118;-58
2021/06/21 10:21:16;;;;;;;3.70;1.42;;;25.70;99.10;;;;;;4190113;28;20040;-58
2021/06/21 10:23:17;;;;;;;3.33;1.30;;;25.50;99.30;;;;;;4189817;28;20040;-60
2021/06/21 10:25:19;;;;;;;4.53;1.02;;;25.40;99.60;;;;;;4190231;28;20074;-60
2021/06/21 10:27:20;;;;;;;4.57;1.67;;;25.40;99.70;;;;;;4189927;28;20040;-59
2021/06/21 10:29:22;;;;;;;4.68;1.45;;;25.50;99.40;;;;;;4190149;28;20037;-59
2021/06/21 10:31:27;;;;;;;2.53;1.02;;;25.40;99.40;;;;;;4189686;28;20021;-60
2021/06/21 10:33:33;;;;;;;4.03;1.30;;;25.50;99.00;;;;;;4189419;28;20066;-60
2021/06/21 10:35:35;;;;;;;2.90;1.30;;;25.50;99.10;;;;;;4189423;28;20036;-59
2021/06/21 10:37:36;;;;;;;3.05;1.33;;;25.70;99.30;;;;;;4189503;28;20415;-60
2021/06/21 10:39:54;;;;;;;1.60;1.50;;;25.80;98.60;;;;;;4189273;28;20040;-59
2021/06/21 10:42:04;;;;;;;3.58;1.10;;;25.80;98.20;;;;;;4189303;28;20032;-58